Time;durP1;ratioP1;P1;durP2;ratioP2;P2;SDS_P1;SDS_P2;PMS_P1;PMS_P2;Temp;Humidity;BMP_temperature;BMP_pressure;BME280_temperature;BME280_humidity;BME280_pressure;Samples;Min_cycle;Max_cycle;Signal;HPM_P1;HPM_P2
2022/10/06 00:00:40;;;;;;;3.38;1.90;;;;;;;11.96;62.59;93818.34;2051190;70;20185;-76
2022/10/06 00:03:06;;;;;;;4.20;2.10;;;;;;;12.04;61.86;93818.16;2053401;69;20158;-78
2022/10/06 00:05:31;;;;;;;3.83;1.90;;;;;;;11.93;62.14;93823.06;2053545;70;20158;-78
2022/10/06 00:07:59;;;;;;;4.55;2.17;;;;;;;11.86;62.18;93831.69;2051108;70;20562;-77
2022/10/06 00:10:24;;;;;;;4.57;2.20;;;;;;;11.78;62.28;93822.59;2050555;70;20158;-78
2022/10/06 00:12:51;;;;;;;5.30;1.90;;;;;;;11.84;62.55;93812.53;2051058;70;20150;-79
2022/10/06 00:15:23;;;;;;;3.17;1.95;;;;;;;11.83;62.37;93825.16;2051115;70;20146;-80
2022/10/06 00:17:49;;;;;;;4.40;1.83;;;;;;;11.81;63.06;93816.50;2051336;70;20162;-77
2022/10/06 00:20:15;;;;;;;5.22;2.10;;;;;;;11.91;62.32;93805.25;2051285;70;20191;-79
2022/10/06 00:22:44;;;;;;;4.10;1.48;;;;;;;11.87;62.27;93808.53;2051400;70;20166;-78
2022/10/06 00:25:11;;;;;;;5.80;2.03;;;;;;;11.82;62.34;93812.38;2048273;70;20143;-78
2022/10/06 00:27:40;;;;;;;2.50;1.70;;;;;;;11.71;62.24;93813.66;2051300;70;20581;-79
2022/10/06 00:30:11;;;;;;;5.05;2.13;;;;;;;11.74;62.44;93817.41;2049825;70;20159;-77
2022/10/06 00:32:38;;;;;;;5.10;2.00;;;;;;;11.82;61.98;93811.59;2050681;70;20210;-79
2022/10/06 00:35:08;;;;;;;4.60;2.10;;;;;;;11.73;62.11;93824.38;2048499;70;20142;-79
2022/10/06 00:37:41;;;;;;;6.82;2.10;;;;;;;11.57;63.44;93817.50;2048413;70;20162;-80
2022/10/06 00:40:12;;;;;;;4.72;2.20;;;;;;;11.48;63.70;93824.63;2051213;70;20142;-80
2022/10/06 00:43:06;;;;;;;7.22;2.25;;;;;;;11.45;63.89;93820.91;2051587;70;20233;-78
2022/10/06 00:45:47;;;;;;;4.18;2.40;;;;;;;11.62;60.89;93822.13;2050903;70;20217;-80
2022/10/06 00:48:23;;;;;;;4.03;2.20;;;;;;;11.44;63.28;93830.69;2048465;70;20536;-81
2022/10/06 00:50:57;;;;;;;7.75;3.10;;;;;;;11.48;62.57;93832.34;2051861;70;20150;-82
2022/10/06 00:53:29;;;;;;;3.67;2.50;;;;;;;11.50;62.51;93824.03;2050899;70;20150;-79
2022/10/06 00:55:56;;;;;;;12.52;6.25;;;;;;;11.56;61.93;93825.25;2048065;70;20213;-78
2022/10/06 00:58:23;;;;;;;15.18;7.63;;;;;;;11.49;62.84;93819.72;2051734;70;20130;-75
2022/10/06 01:00:58;;;;;;;13.35;6.28;;;;;;;11.37;63.54;93828.03;2051525;70;20138;-81
2022/10/06 01:03:31;;;;;;;9.45;4.80;;;;;;;11.33;63.41;93820.00;2051182;70;20201;-81
2022/10/06 01:06:01;;;;;;;5.90;3.00;;;;;;;11.36;64.05;93827.28;2051488;70;20628;-79
2022/10/06 01:08:33;;;;;;;6.57;2.50;;;;;;;11.36;63.01;93824.47;2051428;70;20573;-81
2022/10/06 01:11:01;;;;;;;4.88;2.50;;;;;;;11.49;62.27;93825.38;2051590;70;20142;-81
2022/10/06 01:13:29;;;;;;;6.72;3.65;;;;;;;11.40;63.08;93821.19;2051202;70;20150;-80
2022/10/06 01:16:07;;;;;;;7.45;3.15;;;;;;;11.38;62.13;93815.41;2050729;70;20142;-79
2022/10/06 01:18:41;;;;;;;14.45;5.65;;;;;;;11.22;64.09;93814.91;2051684;70;20150;-79
2022/10/06 01:21:38;;;;;;;9.98;4.30;;;;;;;11.20;63.51;93823.22;2051742;70;20149;-80
2022/10/06 01:24:27;;;;;;;10.10;4.05;;;;;;;11.26;63.11;93818.03;2049983;70;20616;-73
2022/10/06 01:26:56;;;;;;;10.10;2.70;;;;;;;11.24;63.41;93825.59;2052219;70;20490;-78
2022/10/06 01:29:24;;;;;;;10.50;4.30;;;;;;;11.09;63.64;93830.16;2047841;70;20146;-79
2022/10/06 01:31:50;;;;;;;9.68;4.47;;;;;;;11.01;64.47;93829.53;2051957;70;20135;-80
2022/10/06 01:34:27;;;;;;;10.95;4.28;;;;;;;11.00;64.19;93830.13;2052059;70;20154;-80
2022/10/06 01:36:59;;;;;;;7.97;3.30;;;;;;;11.06;63.88;93824.94;2052138;70;20139;-79
2022/10/06 01:39:26;;;;;;;10.57;3.70;;;;;;;11.13;63.18;93829.72;2051556;70;20154;-81
2022/10/06 01:41:55;;;;;;;9.45;4.43;;;;;;;10.99;64.00;93837.81;2052095;70;20142;-80
2022/10/06 01:44:28;;;;;;;21.52;10.23;;;;;;;11.00;64.46;93832.94;2051700;70;20166;-75
2022/10/06 01:46:54;;;;;;;23.85;11.70;;;;;;;10.92;64.65;93835.88;2051956;70;20170;-77
2022/10/06 01:49:19;;;;;;;13.38;6.57;;;;;;;10.95;64.05;93834.72;2048314;70;20153;-80
2022/10/06 01:51:47;;;;;;;9.25;5.00;;;;;;;10.99;64.35;93832.19;2051023;70;20170;-78
2022/10/06 01:54:15;;;;;;;8.20;3.83;;;;;;;10.98;64.69;93827.88;2052042;70;20158;-80
2022/10/06 01:56:48;;;;;;;8.05;4.55;;;;;;;10.96;64.10;93822.09;2051972;70;20149;-81
2022/10/06 01:59:14;;;;;;;18.02;8.85;;;;;;;10.85;64.11;93825.44;2045563;70;20158;-79
2022/10/06 02:01:40;;;;;;;14.52;7.45;;;;;;;10.83;65.34;93828.88;2047969;70;20154;-77
2022/10/06 02:04:06;;;;;;;10.23;4.78;;;;;;;10.83;64.98;93825.31;2048472;70;20146;-79
2022/10/06 02:06:32;;;;;;;10.05;4.63;;;;;;;10.88;64.31;93829.91;2048191;70;20146;-78
2022/10/06 02:08:59;;;;;;;10.48;5.68;;;;;;;10.76;65.20;93832.53;2048403;70;20138;-78
2022/10/06 02:11:25;;;;;;;12.50;5.80;;;;;;;10.75;64.76;93838.75;2051658;70;20170;-79
2022/10/06 02:13:52;;;;;;;9.95;5.10;;;;;;;10.81;64.29;93836.41;2050748;70;20439;-79
2022/10/06 02:16:18;;;;;;;8.30;4.43;;;;;;;10.81;64.60;93842.81;2051538;70;20466;-78
2022/10/06 02:18:44;;;;;;;10.68;4.78;;;;;;;10.85;63.76;93840.28;2048429;70;20153;-78
2022/10/06 02:21:17;;;;;;;7.90;4.18;;;;;;;10.84;63.92;93838.06;2051305;70;20208;-79
2022/10/06 02:23:43;;;;;;;9.73;4.20;;;;;;;10.73;64.81;93839.34;2051179;70;20142;-80
2022/10/06 02:26:09;;;;;;;13.02;6.00;;;;;;;10.68;64.85;93837.53;2048424;70;20553;-78
2022/10/06 02:28:35;;;;;;;10.48;4.53;;;;;;;10.69;64.07;93833.38;2051672;70;20236;-77
2022/10/06 02:31:06;;;;;;;8.15;4.05;;;;;;;10.68;64.08;93834.72;2047933;70;20178;-78
2022/10/06 02:33:33;;;;;;;10.75;4.22;;;;;;;10.61;65.33;93827.84;2048085;70;20185;-78
2022/10/06 02:35:59;;;;;;;7.93;4.05;;;;;;;10.68;64.35;93838.28;2048353;70;20170;-80
2022/10/06 02:38:27;;;;;;;10.38;4.82;;;;;;;10.53;65.27;93837.72;2051164;70;20573;-79
2022/10/06 02:40:53;;;;;;;11.90;4.50;;;;;;;10.59;64.34;93836.16;2051137;70;20150;-78
2022/10/06 02:43:21;;;;;;;7.80;4.28;;;;;;;10.62;64.80;93834.97;2051049;70;20538;-77
2022/10/06 02:46:01;;;;;;;8.60;4.60;;;;;;;10.59;64.60;93838.22;2051017;70;20162;-78
2022/10/06 02:48:27;;;;;;;9.07;4.55;;;;;;;10.51;64.87;93846.03;2051013;70;20142;-78
2022/10/06 02:51:03;;;;;;;7.93;4.47;;;;;;;10.39;65.63;93849.34;2051005;70;20143;-77
2022/10/06 02:53:29;;;;;;;9.32;4.00;;;;;;;10.41;64.95;93857.97;2051106;70;20230;-80
2022/10/06 02:56:04;;;;;;;9.25;4.45;;;;;;;10.35;65.85;93853.91;2051679;70;20281;-77
2022/10/06 02:58:30;;;;;;;7.97;3.78;;;;;;;10.24;65.69;93858.00;2051178;70;20201;-78
2022/10/06 03:01:09;;;;;;;6.43;3.67;;;;;;;10.24;65.80;93860.81;2051395;70;20145;-78
2022/10/06 03:03:35;;;;;;;6.47;3.38;;;;;;;10.21;65.54;93866.81;2051067;70;20170;-79
2022/10/06 03:06:22;;;;;;;6.53;3.60;;;;;;;10.38;64.07;93861.22;2048403;70;20154;-77
2022/10/06 03:09:04;;;;;;;9.52;3.97;;;;;;;10.19;66.43;93870.22;2051065;70;20347;-79
2022/10/06 03:11:33;;;;;;;11.32;4.57;;;;;;;10.22;65.19;93866.25;2050946;70;20150;-78
2022/10/06 03:13:59;;;;;;;5.20;3.30;;;;;;;10.19;65.43;93865.34;2048100;70;20138;-79
2022/10/06 03:16:32;;;;;;;7.68;3.55;;;;;;;10.21;66.02;93866.81;2050826;70;20139;-78
2022/10/06 03:19:00;;;;;;;8.13;3.65;;;;;;;10.09;66.52;93872.97;2050688;70;20158;-78
2022/10/06 03:21:29;;;;;;;10.00;3.58;;;;;;;10.16;66.53;93865.75;2050936;70;20228;-79
2022/10/06 03:23:56;;;;;;;9.88;3.28;;;;;;;10.22;64.51;93873.94;2051104;70;20608;-80
2022/10/06 03:26:29;;;;;;;5.15;3.30;;;;;;;10.17;65.69;93875.69;2051697;70;20231;-80
2022/10/06 03:28:56;;;;;;;6.85;3.58;;;;;;;10.14;65.28;93886.03;2051045;70;20261;-79
2022/10/06 03:31:24;;;;;;;5.40;2.90;;;;;;;10.16;65.73;93888.28;2047912;70;20149;-79
2022/10/06 03:33:51;;;;;;;6.45;3.03;;;;;;;10.05;66.44;93889.53;2047864;70;20150;-79
2022/10/06 03:36:21;;;;;;;6.45;3.30;;;;;;;10.16;64.32;93882.63;2050670;70;20554;-78
2022/10/06 03:38:47;;;;;;;6.20;2.85;;;;;;;10.07;66.27;93889.66;2051549;70;20316;-79
2022/10/06 03:41:16;;;;;;;4.32;2.60;;;;;;;10.06;65.70;93890.25;2047900;70;20153;-79
2022/10/06 03:43:46;;;;;;;5.68;2.90;;;;;;;10.08;65.47;93890.41;2050979;70;20173;-78
2022/10/06 03:46:20;;;;;;;6.47;2.88;;;;;;;10.05;65.29;93891.59;2047794;70;20166;-75
2022/10/06 03:48:47;;;;;;;4.20;2.83;;;;;;;10.04;64.66;93892.94;2047974;70;20567;-77
2022/10/06 03:51:31;;;;;;;9.85;5.32;;;;;;;9.90;65.67;93903.75;2048796;70;20459;-79
2022/10/06 03:53:58;;;;;;;9.57;4.55;;;;;;;9.90;65.95;93906.56;2051849;70;20256;-78
2022/10/06 03:56:28;;;;;;;8.18;3.92;;;;;;;9.89;65.76;93911.44;2048458;70;20193;-79
2022/10/06 03:59:03;;;;;;;8.15;4.40;;;;;;;9.90;66.26;93912.19;2051236;70;20202;-78
2022/10/06 04:01:32;;;;;;;15.77;7.25;;;;;;;9.95;65.90;93914.03;2047918;70;20173;-77
2022/10/06 04:04:01;;;;;;;48.22;18.48;;;;;;;9.89;66.56;93919.13;2051063;70;20165;-76
2022/10/06 04:06:29;;;;;;;42.70;17.67;;;;;;;9.90;66.09;93912.94;2051449;70;20181;-78
2022/10/06 04:08:56;;;;;;;29.50;11.55;;;;;;;9.83;66.63;93910.19;2050898;70;20190;-76
2022/10/06 04:11:25;;;;;;;29.98;13.20;;;;;;;9.84;66.41;93906.78;2051341;70;20236;-78
2022/10/06 04:14:14;;;;;;;26.58;10.25;;;;;;;9.84;66.42;93911.69;2050161;70;20605;-79
2022/10/06 04:16:45;;;;;;;33.13;14.43;;;;;;;9.87;65.59;93911.28;2047140;70;20270;-79
2022/10/06 04:19:14;;;;;;;32.13;13.48;;;;;;;9.85;66.72;93907.53;2050333;70;20146;-78
2022/10/06 04:21:45;;;;;;;25.77;11.75;;;;;;;9.77;65.98;93907.63;2050379;70;20257;-80
2022/10/06 04:24:17;;;;;;;24.13;11.23;;;;;;;9.76;66.15;93903.34;2047509;70;20167;-77
2022/10/06 04:26:47;;;;;;;21.27;9.90;;;;;;;9.67;66.69;93910.34;2050577;70;20146;-79
2022/10/06 04:29:13;;;;;;;18.65;7.65;;;;;;;9.67;66.25;93918.03;2048145;70;20135;-79
2022/10/06 04:31:41;;;;;;;15.27;7.72;;;;;;;9.68;66.19;93927.97;2050238;70;20146;-78
2022/10/06 04:34:12;;;;;;;28.77;14.90;;;;;;;9.71;65.20;93931.66;2050235;70;20154;-79
2022/10/06 04:36:40;;;;;;;26.23;11.52;;;;;;;9.63;64.95;93932.50;2050311;70;20375;-79
2022/10/06 04:39:11;;;;;;;30.67;15.60;;;;;;;9.56;66.79;93933.28;2050401;70;20548;-79
2022/10/06 04:41:39;;;;;;;25.50;11.85;;;;;;;9.54;66.45;93933.13;2050373;70;20182;-79
2022/10/06 04:44:05;;;;;;;21.13;10.88;;;;;;;9.56;66.29;93933.28;2050410;70;20225;-79
2022/10/06 04:46:32;;;;;;;27.83;13.57;;;;;;;9.45;66.89;93938.66;2050121;70;20209;-79
2022/10/06 04:48:59;;;;;;;27.65;13.00;;;;;;;9.48;67.41;93941.03;2050332;70;20582;-77
2022/10/06 04:51:27;;;;;;;36.22;18.17;;;;;;;9.42;67.22;93949.72;2047182;70;20503;-79
2022/10/06 04:53:54;;;;;;;29.52;14.40;;;;;;;9.39;67.83;93948.06;2050197;70;20265;-76
2022/10/06 04:56:26;;;;;;;24.02;11.80;;;;;;;9.43;66.76;93951.19;2050315;70;20589;-78
2022/10/06 04:58:55;;;;;;;27.55;14.38;;;;;;;9.48;65.81;93957.91;2049798;70;20181;-75
2022/10/06 05:01:27;;;;;;;24.23;13.85;;;;;;;9.45;67.09;93952.72;2047968;70;20150;-77
2022/10/06 05:03:55;;;;;;;24.20;12.73;;;;;;;9.40;66.77;93948.81;2047554;70;20130;-78
2022/10/06 05:06:24;;;;;;;26.48;13.82;;;;;;;9.41;66.79;93951.03;2047289;70;20234;-77
2022/10/06 05:08:52;;;;;;;23.70;13.73;;;;;;;9.35;67.30;93953.34;2047512;70;20245;-77
2022/10/06 05:11:21;;;;;;;33.50;17.17;;;;;;;9.50;65.67;93951.72;2047920;70;20155;-78
2022/10/06 05:13:49;;;;;;;25.90;15.57;;;;;;;9.45;66.28;93949.91;2050107;70;20586;-78
2022/10/06 05:16:16;;;;;;;30.02;15.73;;;;;;;9.23;69.12;93957.91;2047787;70;20186;-78
2022/10/06 05:18:44;;;;;;;23.50;14.60;;;;;;;9.31;68.05;93964.22;2050208;70;20569;-79
2022/10/06 05:21:12;;;;;;;23.63;14.57;;;;;;;9.30;68.45;93959.94;2050187;70;20155;-76
2022/10/06 05:23:40;;;;;;;20.60;13.05;;;;;;;9.31;67.27;93971.91;2050264;70;20163;-77
2022/10/06 05:26:09;;;;;;;22.10;12.88;;;;;;;9.25;67.52;93974.94;2050230;70;20209;-78
2022/10/06 05:28:35;;;;;;;20.83;11.25;;;;;;;9.13;67.81;93977.47;2048048;70;20257;-77
2022/10/06 05:31:25;;;;;;;15.85;10.15;;;;;;;9.18;66.98;93978.56;2049964;70;20193;-76
2022/10/06 05:33:52;;;;;;;22.15;10.90;;;;;;;9.22;67.14;93986.59;2049947;70;20158;-77
2022/10/06 05:36:20;;;;;;;17.38;9.98;;;;;;;9.23;67.36;93982.47;2050049;70;20238;-75
2022/10/06 05:38:47;;;;;;;19.50;11.40;;;;;;;9.24;67.82;93993.13;2049974;70;20180;-75
2022/10/06 05:41:30;;;;;;;20.10;10.90;;;;;;;9.26;66.75;93989.75;2049968;70;20146;-76
2022/10/06 05:43:58;;;;;;;18.13;11.25;;;;;;;9.26;66.47;93986.94;2050224;70;20163;-78
2022/10/06 05:46:27;;;;;;;17.02;10.68;;;;;;;9.13;68.44;93987.94;2049980;70;20174;-79
2022/10/06 05:48:57;;;;;;;32.85;17.30;;;;;;;9.19;67.83;93999.72;2050091;70;20213;-76
2022/10/06 05:51:27;;;;;;;43.70;20.77;;;;;;;9.16;68.74;94001.59;2050090;70;20661;-80
2022/10/06 05:53:53;;;;;;;26.35;14.32;;;;;;;9.18;67.72;94009.47;2050076;70;20147;-77
2022/10/06 05:56:24;;;;;;;55.30;27.27;;;;;;;9.18;68.67;94001.03;2046980;70;20149;-79
2022/10/06 05:58:52;;;;;;;45.42;23.88;;;;;;;9.20;67.84;94001.19;2050025;70;20238;-79
2022/10/06 06:01:27;;;;;;;35.55;21.02;;;;;;;9.23;67.78;94002.88;2049821;70;20182;-79
2022/10/06 06:04:02;;;;;;;32.45;17.00;;;;;;;9.24;66.88;94004.34;2049948;70;20168;-80
2022/10/06 06:06:35;;;;;;;39.03;21.45;;;;;;;9.17;67.51;94007.97;2050103;70;20174;-78
2022/10/06 06:09:11;;;;;;;46.53;20.85;;;;;;;9.22;67.73;94011.88;2047908;70;20139;-80
2022/10/06 06:11:40;;;;;;;36.50;23.45;;;;;;;9.23;67.57;94007.75;2050577;70;20616;-78
2022/10/06 06:14:16;;;;;;;41.33;31.42;;;;;;;9.33;66.81;94017.78;2050366;70;20229;-79
2022/10/06 06:16:43;;;;;;;43.05;24.90;;;;;;;9.31;66.71;94028.88;2044732;70;20143;-79
2022/10/06 06:19:11;;;;;;;27.92;18.67;;;;;;;8.93;69.86;94037.47;2050470;70;20197;-74
2022/10/06 06:21:41;;;;;;;26.20;14.32;;;;;;;9.13;68.94;94047.69;2050713;70;20221;-75
2022/10/06 06:24:08;;;;;;;20.45;12.80;;;;;;;9.23;67.97;94041.47;2050598;70;20217;-75
2022/10/06 06:26:35;;;;;;;18.98;10.82;;;;;;;9.26;66.51;94046.69;2050549;70;20174;-77
2022/10/06 06:29:03;;;;;;;22.38;11.27;;;;;;;9.36;65.78;94047.56;2050477;70;20579;-76
2022/10/06 06:31:38;;;;;;;21.60;11.40;;;;;;;9.16;67.91;94051.41;2050399;70;20154;-78
2022/10/06 06:34:06;;;;;;;35.42;17.70;;;;;;;9.15;68.73;94052.75;2050479;70;20163;-76
2022/10/06 06:36:39;;;;;;;29.60;19.08;;;;;;;9.07;69.52;94052.78;2050450;70;20245;-75
2022/10/06 06:39:15;;;;;;;33.42;19.80;;;;;;;9.04;70.02;94059.53;2050347;70;20167;-78
2022/10/06 06:41:46;;;;;;;31.33;18.77;;;;;;;9.26;67.97;94060.00;2050261;70;20182;-77
2022/10/06 06:44:30;;;;;;;30.95;18.38;;;;;;;9.27;68.38;94059.44;2047711;70;20633;-76
2022/10/06 06:47:08;;;;;;;27.25;18.73;;;;;;;9.30;67.71;94063.91;2050437;70;20540;-77
2022/10/06 06:49:34;;;;;;;27.77;18.13;;;;;;;9.35;67.26;94057.31;2050357;70;20241;-81
2022/10/06 06:52:04;;;;;;;27.15;18.20;;;;;;;9.34;68.42;94061.44;2050416;70;20150;-76
2022/10/06 06:54:30;;;;;;;24.85;16.40;;;;;;;9.32;67.95;94052.84;2050326;70;20162;-74
2022/10/06 06:57:07;;;;;;;22.08;15.90;;;;;;;9.07;69.55;94054.81;2050411;70;20146;-77
2022/10/06 06:59:32;;;;;;;25.45;15.60;;;;;;;9.15;68.36;94066.78;2047195;70;20154;-75
2022/10/06 07:01:59;;;;;;;29.85;17.13;;;;;;;9.29;68.42;94068.03;2047431;70;20220;-76
2022/10/06 07:04:27;;;;;;;29.50;16.92;;;;;;;9.33;68.40;94076.06;2050520;70;20158;-78
2022/10/06 07:06:57;;;;;;;26.77;16.13;;;;;;;9.27;69.19;94073.47;2050463;70;20566;-78
2022/10/06 07:09:27;;;;;;;23.23;15.13;;;;;;;9.32;68.80;94086.56;2050627;70;20159;-79
2022/10/06 07:11:59;;;;;;;24.67;14.80;;;;;;;9.40;68.09;94087.28;2050443;70;20181;-79
2022/10/06 07:14:24;;;;;;;23.42;14.18;;;;;;;9.38;68.45;94095.53;2050254;70;20142;-79
2022/10/06 07:25:07;;;;;;;27.55;14.23;;;;;;;9.26;69.02;94082.50;2050418;70;20253;-78
2022/10/06 07:27:36;;;;;;;24.55;13.73;;;;;;;9.48;68.71;94078.78;2048245;70;20237;-80
2022/10/06 07:30:05;;;;;;;25.48;15.02;;;;;;;9.50;68.96;94073.34;2050319;70;20161;-77
2022/10/06 07:32:31;;;;;;;24.45;14.32;;;;;;;9.57;68.62;94077.41;2048320;70;20273;-77
2022/10/06 07:34:58;;;;;;;18.92;12.65;;;;;;;9.63;68.47;94072.34;2050242;70;20170;-78
2022/10/06 07:37:24;;;;;;;20.92;12.75;;;;;;;9.64;68.62;94076.66;2047469;70;20138;-79
2022/10/06 07:39:50;;;;;;;18.77;11.38;;;;;;;9.58;68.57;94068.44;2050351;70;20262;-79
2022/10/06 07:42:17;;;;;;;18.95;11.00;;;;;;;9.66;68.95;94069.13;2050259;70;20213;-78
2022/10/06 07:45:36;;;;;;;21.58;11.82;;;;;;;9.74;68.69;94063.44;2050161;70;20147;-76
2022/10/06 07:47:30;;;;;;;23.67;12.05;;;;;;;9.83;70.34;94062.06;2047950;70;20150;-80
2022/10/06 07:49:57;;;;;;;23.08;12.70;;;;;;;10.38;68.27;94058.25;2047196;70;20616;-77
2022/10/06 07:52:24;;;;;;;17.92;10.80;;;;;;;10.80;69.44;94066.66;2047198;70;20145;-77
2022/10/06 07:54:51;;;;;;;26.02;12.57;;;;;;;11.17;68.36;94063.97;2050109;70;20162;-75
2022/10/06 07:57:34;;;;;;;22.77;12.52;;;;;;;11.65;67.29;94064.28;2050258;70;20147;-74
2022/10/06 08:00:04;;;;;;;25.67;13.18;;;;;;;11.97;67.71;94062.53;2050185;70;20255;-79
2022/10/06 08:02:38;;;;;;;25.05;12.38;;;;;;;12.45;66.93;94073.22;2048036;70;20534;-77
2022/10/06 08:05:04;;;;;;;23.10;11.75;;;;;;;12.61;66.59;94074.44;2047962;70;20205;-74
2022/10/06 08:07:30;;;;;;;25.65;11.95;;;;;;;13.05;66.36;94073.44;2048201;70;20595;-78
2022/10/06 08:09:55;;;;;;;20.00;10.85;;;;;;;13.11;64.74;94070.31;2048151;70;20238;-77
2022/10/06 08:12:33;;;;;;;16.30;10.25;;;;;;;13.44;62.96;94073.44;2048064;70;20134;-78
2022/10/06 08:15:02;;;;;;;20.13;9.50;;;;;;;13.90;61.50;94076.03;2050973;70;20154;-79
2022/10/06 08:17:28;;;;;;;18.35;9.50;;;;;;;14.33;61.88;94072.56;2051241;70;20162;-78
2022/10/06 08:19:54;;;;;;;12.70;8.18;;;;;;;14.55;60.54;94065.63;2050918;70;20234;-77
2022/10/06 08:22:21;;;;;;;9.13;5.47;;;;;;;14.65;58.95;94069.13;2051377;70;20494;-77
2022/10/06 08:24:47;;;;;;;10.82;6.47;;;;;;;14.87;57.60;94072.72;2051393;70;20585;-78
2022/10/06 08:27:13;;;;;;;10.50;6.05;;;;;;;15.02;57.30;94065.91;2051235;70;20210;-79
2022/10/06 08:29:38;;;;;;;10.32;6.40;;;;;;;15.62;56.96;94070.47;2051296;70;20146;-77
2022/10/06 08:32:04;;;;;;;9.88;5.50;;;;;;;15.90;56.04;94080.84;2051336;70;20192;-79
2022/10/06 08:34:30;;;;;;;8.50;5.20;;;;;;;15.73;55.89;94076.22;2051342;70;20252;-73
2022/10/06 08:36:56;;;;;;;13.75;4.50;;;;;;;16.33;54.69;94065.69;2051352;70;20189;-75
2022/10/06 08:39:22;;;;;;;8.60;4.68;;;;;;;16.57;53.27;94067.16;2051196;70;20138;-76
2022/10/06 08:41:52;;;;;;;8.13;4.65;;;;;;;16.98;52.91;94072.44;2050433;70;20156;-76
2022/10/06 08:44:22;;;;;;;5.50;4.07;;;;;;;17.25;51.81;94064.09;2051335;70;20570;-75
2022/10/06 08:47:12;;;;;;;7.35;3.63;;;;;;;17.46;51.50;94066.00;2051153;70;20581;-76
2022/10/06 08:49:44;;;;;;;7.28;3.75;;;;;;;18.13;51.70;94062.56;2051273;70;20308;-76
2022/10/06 08:52:19;;;;;;;8.95;5.00;;;;;;;18.04;48.80;94049.97;2051238;70;20187;-77
2022/10/06 08:55:06;;;;;;;6.88;3.90;;;;;;;18.35;49.19;94058.06;2051278;70;20656;-79
2022/10/06 08:58:09;;;;;;;8.98;4.45;;;;;;;18.65;48.40;94046.81;2051757;70;20154;-76
2022/10/06 09:00:36;;;;;;;4.97;3.92;;;;;;;19.04;48.42;94056.00;2036476;70;20588;-73
2022/10/06 09:03:02;;;;;;;6.60;3.42;;;;;;;19.32;47.52;94052.34;2036548;70;20569;-76
2022/10/06 09:05:30;;;;;;;8.05;3.20;;;;;;;19.34;47.48;94050.34;2036589;70;20155;-74
2022/10/06 09:08:14;;;;;;;5.90;3.67;;;;;;;19.79;47.50;94049.66;2036544;70;20159;-77
2022/10/06 09:10:59;;;;;;;6.22;3.10;;;;;;;19.41;44.17;94045.66;2036543;70;20287;-77
2022/10/06 09:13:29;;;;;;;5.22;3.15;;;;;;;19.81;45.14;94046.94;2036528;70;20152;-78
2022/10/06 09:16:06;;;;;;;4.00;2.90;;;;;;;20.52;44.73;94046.66;2036530;70;20135;-78
2022/10/06 09:18:37;;;;;;;2.60;2.38;;;;;;;20.50;44.90;94047.28;2036630;70;20501;-79
2022/10/06 09:21:10;;;;;;;5.05;3.00;;;;;;;20.70;44.32;94041.00;2036516;70;20175;-78
2022/10/06 09:23:48;;;;;;;5.15;2.65;;;;;;;20.86;42.22;94030.28;2036616;70;20258;-77
2022/10/06 09:26:27;;;;;;;3.80;2.30;;;;;;;21.28;43.75;94042.09;2036659;70;20132;-77
2022/10/06 09:28:54;;;;;;;5.72;2.20;;;;;;;20.66;40.80;94038.69;2036656;70;20143;-79
2022/10/06 09:31:27;;;;;;;3.90;2.40;;;;;;;20.87;41.26;94034.63;2034970;70;20250;-78
2022/10/06 09:33:54;;;;;;;;;;;;;;;21.71;41.94;94038.13;2036739;70;20155;-80
2022/10/06 09:36:22;;;;;;;4.35;2.30;;;;;;;22.31;40.07;94027.59;2038514;70;20471;-79
2022/10/06 09:38:56;;;;;;;5.13;2.58;;;;;;;22.78;39.96;94024.34;2051134;70;20174;-81
2022/10/06 09:41:27;;;;;;;3.22;2.38;;;;;;;22.77;38.49;94020.00;2051343;70;20130;-80
2022/10/06 09:43:56;;;;;;;4.15;3.00;;;;;;;22.22;40.86;94023.72;2051890;70;20147;-79
2022/10/06 09:46:40;;;;;;;5.95;2.95;;;;;;;22.85;38.25;94013.81;2051549;70;20144;-78
2022/10/06 09:49:13;;;;;;;4.72;2.47;;;;;;;22.93;37.20;94014.13;2051549;70;20162;-79
2022/10/06 09:51:38;;;;;;;3.53;2.30;;;;;;;23.41;34.50;93999.22;2051554;70;20229;-77
2022/10/06 09:54:14;;;;;;;3.35;2.58;;;;;;;23.74;36.45;94001.09;2051655;70;20226;-75
2022/10/06 09:56:46;;;;;;;3.22;2.20;;;;;;;24.48;36.06;93992.59;2051625;70;20146;-81
2022/10/06 09:59:20;;;;;;;3.47;2.30;;;;;;;23.46;34.95;93987.22;2051758;70;20178;-78
2022/10/06 10:01:58;;;;;;;3.88;1.98;;;;;;;23.07;36.04;93985.19;2051590;70;20214;-78
2022/10/06 10:04:39;;;;;;;5.57;2.20;;;;;;;23.73;35.83;93991.72;2051877;70;20156;-80
2022/10/06 10:07:23;;;;;;;3.13;1.98;;;;;;;22.96;35.25;93989.84;2051775;70;20330;-79
2022/10/06 10:10:08;;;;;;;2.92;1.80;;;;;;;23.27;36.23;93982.97;2051696;70;20170;-80
2022/10/06 10:12:34;;;;;;;3.90;2.22;;;;;;;24.59;34.04;93972.03;2051809;70;20157;-80
2022/10/06 10:15:04;;;;;;;3.97;2.45;;;;;;;25.29;33.95;93971.81;2051556;70;20138;-79
2022/10/06 10:17:52;;;;;;;4.57;2.10;;;;;;;25.85;32.13;93968.16;2051540;70;20149;-80
2022/10/06 10:20:25;;;;;;;3.88;1.90;;;;;;;25.02;31.64;93958.81;2051625;70;20578;-79
2022/10/06 10:22:52;;;;;;;3.83;2.15;;;;;;;25.02;32.62;93958.81;2051632;70;20372;-78
2022/10/06 10:25:37;;;;;;;4.75;2.20;;;;;;;26.07;31.48;93965.03;2051449;70;20172;-80
2022/10/06 10:28:21;;;;;;;3.17;1.90;;;;;;;25.00;32.91;93966.66;2051478;70;20480;-79
2022/10/06 10:30:55;;;;;;;3.88;1.92;;;;;;;26.47;31.79;93962.34;2051498;70;20185;-76
2022/10/06 10:33:38;;;;;;;6.22;2.63;;;;;;;26.83;30.74;93962.34;2051564;70;20174;-79
2022/10/06 10:36:05;;;;;;;;;;;;;;;27.67;30.89;93957.34;2051994;70;20240;-76
2022/10/06 10:38:39;;;;;;;7.03;2.75;;;;;;;28.45;30.40;93968.00;2051821;70;20090;-76
2022/10/06 10:41:27;;;;;;;4.22;2.50;;;;;;;28.96;28.52;93960.72;2051570;70;20150;-82
2022/10/06 10:44:08;;;;;;;6.18;2.50;;;;;;;29.23;28.98;93961.72;2051494;70;20153;-78
2022/10/06 10:47:01;;;;;;;5.38;2.35;;;;;;;30.15;27.81;93956.00;2051377;70;20166;-79
2022/10/06 10:49:28;;;;;;;4.82;2.80;;;;;;;30.44;26.36;93954.03;2051579;70;20257;-79
2022/10/06 10:52:15;;;;;;;4.70;1.98;;;;;;;29.27;26.22;93961.75;2051461;70;20234;-79
2022/10/06 10:55:06;;;;;;;4.60;2.67;;;;;;;31.44;25.25;93951.56;2051528;70;20146;-80
2022/10/06 10:57:39;;;;;;;5.57;2.00;;;;;;;32.60;24.33;93952.25;2040089;70;20204;-77
2022/10/06 11:00:19;;;;;;;58.67;4.22;;;;;;;33.94;23.44;93949.41;2051448;70;20146;-79
2022/10/06 11:02:45;;;;;;;26.98;2.63;;;;;;;33.92;23.02;93952.34;2051452;70;20138;-79
2022/10/06 11:05:27;;;;;;;4.38;1.80;;;;;;;35.87;21.01;93938.41;2051787;70;20146;-80
2022/10/06 11:08:15;;;;;;;5.63;1.85;;;;;;;34.31;20.95;93938.84;2051454;70;20657;-81
2022/10/06 11:10:54;;;;;;;6.82;1.55;;;;;;;34.42;21.58;93941.69;2051315;70;20269;-81
2022/10/06 11:13:40;;;;;;;4.50;1.50;;;;;;;36.80;20.44;93941.22;2051780;70;20142;-81
2022/10/06 11:16:23;;;;;;;4.38;1.60;;;;;;;35.71;20.51;93938.66;2049203;70;20157;-79
2022/10/06 11:18:57;;;;;;;4.22;1.48;;;;;;;37.14;19.88;93930.28;2051660;70;20177;-82
2022/10/06 11:21:33;;;;;;;3.92;1.35;;;;;;;35.50;20.58;93929.44;2051707;70;20161;-79
2022/10/06 11:24:20;;;;;;;5.45;1.70;;;;;;;37.50;19.19;93928.09;2051489;70;20149;-81
2022/10/06 11:26:58;;;;;;;6.07;1.65;;;;;;;38.14;19.17;93937.59;2051493;70;20158;-79
2022/10/06 11:29:39;;;;;;;6.35;1.50;;;;;;;34.02;20.77;93914.31;2050823;70;20158;-76
2022/10/06 11:32:49;;;;;;;6.45;1.83;;;;;;;34.72;20.33;93917.97;2051391;70;20146;-78
2022/10/06 11:35:25;;;;;;;5.75;1.50;;;;;;;38.10;18.54;93928.88;2036618;70;20329;-79
2022/10/06 11:38:03;;;;;;;6.97;1.70;;;;;;;39.12;17.90;93926.19;2036689;70;20743;-80
2022/10/06 11:40:55;;;;;;;3.65;1.50;;;;;;;35.67;19.07;93905.78;2033709;70;20229;-81
2022/10/06 11:43:31;;;;;;;5.05;1.52;;;;;;;37.70;18.20;93909.25;2033363;70;20179;-76
2022/10/06 11:46:08;;;;;;;4.85;1.20;;;;;;;37.13;17.50;93908.31;2032911;70;20571;-79
2022/10/06 11:48:34;;;;;;;5.78;1.05;;;;;;;35.94;18.36;93898.03;2033589;70;20163;-78
2022/10/06 11:51:27;;;;;;;5.85;1.40;;;;;;;38.18;17.36;93901.50;2033477;70;20144;-77
2022/10/06 11:53:58;;;;;;;2.70;0.88;;;;;;;39.94;17.00;93903.13;2032848;70;20152;-76
2022/10/06 11:56:40;;;;;;;4.00;1.30;;;;;;;37.00;17.96;93893.16;2033875;70;20207;-78
2022/10/06 11:59:11;;;;;;;2.33;1.35;;;;;;;37.84;17.37;93880.28;2033774;70;20176;-79